sensor_id;sensor_type;location;lat;lon;timestamp;pressure;altitude;pressure_sealevel;temperature;humidity
30856;BME280;17570;0.000;0.000;2023-06-19T00:00:06;96953.92;;;26.88;44.71
30856;BME280;17570;0.000;0.000;2023-06-19T00:02:37;96955.98;;;26.86;44.79
30856;BME280;17570;0.000;0.000;2023-06-19T00:05:04;96955.72;;;26.76;44.93
30856;BME280;17570;0.000;0.000;2023-06-19T00:07:32;96957.20;;;26.71;44.77
30856;BME280;17570;0.000;0.000;2023-06-19T00:09:59;96948.63;;;26.69;44.63
30856;BME280;17570;0.000;0.000;2023-06-19T00:12:27;96947.02;;;26.68;44.67
30856;BME280;17570;0.000;0.000;2023-06-19T00:14:54;96948.63;;;26.69;44.71
30856;BME280;17570;0.000;0.000;2023-06-19T00:17:22;96951.73;;;26.66;45.19
30856;BME280;17570;0.000;0.000;2023-06-19T00:19:51;96948.50;;;26.64;44.76
30856;BME280;17570;0.000;0.000;2023-06-19T00:22:18;96952.20;;;26.63;45.02
30856;BME280;17570;0.000;0.000;2023-06-19T00:24:47;96943.61;;;26.61;44.58
30856;BME280;17570;0.000;0.000;2023-06-19T10:24:16;96986.81;;;30.07;38.41
30856;BME280;17570;0.000;0.000;2023-06-19T10:26:55;96980.41;;;31.67;35.87
30856;BME280;17570;0.000;0.000;2023-06-19T10:29:23;96984.48;;;32.54;34.17
30856;BME280;17570;0.000;0.000;2023-06-19T10:31:52;96986.55;;;32.94;33.49
30856;BME280;17570;0.000;0.000;2023-06-19T10:34:19;96983.66;;;33.21;33.47
30856;BME280;17570;0.000;0.000;2023-06-19T10:36:47;96992.03;;;33.40;32.99
30856;BME280;17570;0.000;0.000;2023-06-19T10:39:14;96997.16;;;33.52;32.39
30856;BME280;17570;0.000;0.000;2023-06-19T10:41:42;96989.37;;;33.56;31.20
30856;BME280;17570;0.000;0.000;2023-06-19T10:44:11;96991.25;;;33.65;31.79
30856;BME280;17570;0.000;0.000;2023-06-19T10:46:41;96988.55;;;33.75;31.93
30856;BME280;17570;0.000;0.000;2023-06-19T10:49:08;96986.92;;;33.90;32.56
30856;BME280;17570;0.000;0.000;2023-06-19T10:51:37;96984.78;;;34.07;32.48
30856;BME280;17570;0.000;0.000;2023-06-19T10:54:05;96975.05;;;34.21;32.40
30856;BME280;17570;0.000;0.000;2023-06-19T10:56:34;96972.31;;;34.37;31.98
30856;BME280;17570;0.000;0.000;2023-06-19T10:59:05;96969.04;;;34.55;32.29
30856;BME280;17570;0.000;0.000;2023-06-19T11:01:41;96967.36;;;34.74;32.42
30856;BME280;17570;0.000;0.000;2023-06-19T11:04:05;96972.96;;;34.88;31.52
30856;BME280;17570;0.000;0.000;2023-06-19T11:06:33;96972.09;;;35.03;30.99
30856;BME280;17570;0.000;0.000;2023-06-19T11:09:01;96970.34;;;35.22;30.60
30856;BME280;17570;0.000;0.000;2023-06-19T11:11:37;96971.84;;;35.39;30.18
30856;BME280;17570;0.000;0.000;2023-06-19T11:14:04;96973.93;;;35.52;30.22
30856;BME280;17570;0.000;0.000;2023-06-19T11:16:33;96968.73;;;35.61;30.32
30856;BME280;17570;0.000;0.000;2023-06-19T11:19:01;96968.89;;;35.74;30.15
30856;BME280;17570;0.000;0.000;2023-06-19T11:21:35;96959.08;;;35.84;29.92
30856;BME280;17570;0.000;0.000;2023-06-19T11:24:06;96957.38;;;35.93;29.48
30856;BME280;17570;0.000;0.000;2023-06-19T11:26:34;96958.17;;;35.93;29.89
30856;BME280;17570;0.000;0.000;2023-06-19T11:29:13;96960.56;;;36.00;29.44
30856;BME280;17570;0.000;0.000;2023-06-19T11:31:32;96960.80;;;36.03;29.44
30856;BME280;17570;0.000;0.000;2023-06-19T11:34:02;96954.48;;;36.13;29.19
30856;BME280;17570;0.000;0.000;2023-06-19T11:36:29;96954.61;;;36.27;29.32
30856;BME280;17570;0.000;0.000;2023-06-19T11:38:57;96962.56;;;36.42;29.05
30856;BME280;17570;0.000;0.000;2023-06-19T11:41:28;96956.45;;;36.56;28.62
30856;BME280;17570;0.000;0.000;2023-06-19T11:44:00;96959.00;;;36.71;28.26
30856;BME280;17570;0.000;0.000;2023-06-19T11:46:29;96951.23;;;36.83;28.32
30856;BME280;17570;0.000;0.000;2023-06-19T11:49:13;96954.05;;;36.97;27.91
30856;BME280;17570;0.000;0.000;2023-06-19T11:51:43;96955.95;;;37.15;27.85
30856;BME280;17570;0.000;0.000;2023-06-19T11:54:11;96953.17;;;37.20;27.68
30856;BME280;17570;0.000;0.000;2023-06-19T11:56:41;96950.69;;;37.43;27.52
30856;BME280;17570;0.000;0.000;2023-06-19T11:59:09;96958.78;;;37.62;27.24
30856;BME280;17570;0.000;0.000;2023-06-19T12:01:38;96959.84;;;37.79;27.20
30856;BME280;17570;0.000;0.000;2023-06-19T12:04:06;96948.38;;;38.01;26.93
30856;BME280;17570;0.000;0.000;2023-06-19T12:06:34;96950.38;;;38.23;26.43
30856;BME280;17570;0.000;0.000;2023-06-19T12:09:03;96948.91;;;38.45;26.08
30856;BME280;17570;0.000;0.000;2023-06-19T12:11:33;96945.77;;;38.65;25.83
30856;BME280;17570;0.000;0.000;2023-06-19T12:14:01;96939.14;;;38.85;25.89
30856;BME280;17570;0.000;0.000;2023-06-19T12:16:28;96935.04;;;39.10;25.78
30856;BME280;17570;0.000;0.000;2023-06-19T12:18:56;96940.52;;;39.33;25.60
30856;BME280;17570;0.000;0.000;2023-06-19T12:21:23;96936.95;;;39.46;25.13
30856;BME280;17570;0.000;0.000;2023-06-19T12:23:51;96941.26;;;39.47;25.01
30856;BME280;17570;0.000;0.000;2023-06-19T12:26:19;96928.41;;;39.39;24.44
30856;BME280;17570;0.000;0.000;2023-06-19T12:28:46;96925.50;;;39.35;24.69
30856;BME280;17570;0.000;0.000;2023-06-19T12:31:14;96923.78;;;39.39;24.57
30856;BME280;17570;0.000;0.000;2023-06-19T12:33:41;96924.95;;;39.47;24.34
30856;BME280;17570;0.000;0.000;2023-06-19T12:36:10;96921.92;;;39.48;23.95
30856;BME280;17570;0.000;0.000;2023-06-19T12:38:40;96926.88;;;39.46;23.30
30856;BME280;17570;0.000;0.000;2023-06-19T12:41:08;96919.66;;;39.42;24.50
30856;BME280;17570;0.000;0.000;2023-06-19T12:43:36;96917.80;;;39.51;24.96
30856;BME280;17570;0.000;0.000;2023-06-19T12:46:03;96912.80;;;39.67;25.20
30856;BME280;17570;0.000;0.000;2023-06-19T12:48:31;96919.13;;;39.85;25.22
30856;BME280;17570;0.000;0.000;2023-06-19T12:50:59;96919.21;;;40.02;25.03
30856;BME280;17570;0.000;0.000;2023-06-19T12:53:26;96921.61;;;40.03;24.75
30856;BME280;17570;0.000;0.000;2023-06-19T12:56:01;96916.56;;;40.11;24.52
30856;BME280;17570;0.000;0.000;2023-06-19T12:58:25;96910.98;;;40.24;24.30
30856;BME280;17570;0.000;0.000;2023-06-19T13:00:54;96905.59;;;40.42;24.26
30856;BME280;17570;0.000;0.000;2023-06-19T13:03:21;96907.11;;;40.65;23.82
30856;BME280;17570;0.000;0.000;2023-06-19T13:05:49;96905.55;;;40.90;23.80
30856;BME280;17570;0.000;0.000;2023-06-19T13:08:19;96905.09;;;41.14;23.49
30856;BME280;17570;0.000;0.000;2023-06-19T13:10:47;96904.61;;;41.38;23.29
30856;BME280;17570;0.000;0.000;2023-06-19T13:13:17;96913.38;;;41.61;22.98
30856;BME280;17570;0.000;0.000;2023-06-19T13:15:44;96916.56;;;41.81;22.48
30856;BME280;17570;0.000;0.000;2023-06-19T13:18:11;96909.16;;;41.90;22.52
30856;BME280;17570;0.000;0.000;2023-06-19T13:20:39;96913.11;;;42.01;22.19
30856;BME280;17570;0.000;0.000;2023-06-19T13:23:06;96910.83;;;42.12;22.27
30856;BME280;17570;0.000;0.000;2023-06-19T13:25:34;96911.14;;;42.10;22.16
30856;BME280;17570;0.000;0.000;2023-06-19T13:28:04;96907.13;;;42.16;22.10
30856;BME280;17570;0.000;0.000;2023-06-19T13:30:31;96906.77;;;42.26;21.99
30856;BME280;17570;0.000;0.000;2023-06-19T13:32:59;96903.66;;;42.37;22.29
30856;BME280;17570;0.000;0.000;2023-06-19T13:41:27;96904.00;;;40.41;24.28
30856;BME280;17570;0.000;0.000;2023-06-19T13:43:56;96897.38;;;40.99;23.63
30856;BME280;17570;0.000;0.000;2023-06-19T13:46:24;96904.52;;;42.20;22.20
30856;BME280;17570;0.000;0.000;2023-06-19T13:48:53;96898.73;;;43.01;21.18
30856;BME280;17570;0.000;0.000;2023-06-19T14:04:36;96904.97;;;40.45;24.08
30856;BME280;17570;0.000;0.000;2023-06-19T14:07:04;96902.48;;;41.61;22.44
30856;BME280;17570;0.000;0.000;2023-06-19T14:09:32;96909.55;;;43.19;20.75
30856;BME280;17570;0.000;0.000;2023-06-19T14:12:21;96906.54;;;44.36;19.67
30856;BME280;17570;0.000;0.000;2023-06-19T14:14:49;96907.44;;;44.64;19.08
30856;BME280;17570;0.000;0.000;2023-06-19T14:17:18;96903.73;;;44.85;18.87
30856;BME280;17570;0.000;0.000;2023-06-19T14:19:45;96898.22;;;44.97;18.63
30856;BME280;17570;0.000;0.000;2023-06-19T14:22:13;96901.72;;;45.10;18.49
30856;BME280;17570;0.000;0.000;2023-06-19T14:24:40;96896.30;;;45.25;18.42
30856;BME280;17570;0.000;0.000;2023-06-19T14:51:53;96881.03;;;39.53;19.31
30856;BME280;17570;0.000;0.000;2023-06-19T14:54:24;96887.33;;;40.34;19.01
30856;BME280;17570;0.000;0.000;2023-06-19T14:56:51;96888.08;;;41.26;17.83
30856;BME280;17570;0.000;0.000;2023-06-19T14:59:19;96888.55;;;41.45;17.77
30856;BME280;17570;0.000;0.000;2023-06-19T15:01:47;96893.38;;;41.40;18.17
30856;BME280;17570;0.000;0.000;2023-06-19T15:04:15;96889.38;;;41.11;18.84
30856;BME280;17570;0.000;0.000;2023-06-19T15:06:42;96889.36;;;40.76;18.85
30856;BME280;17570;0.000;0.000;2023-06-19T15:09:10;96890.77;;;40.57;18.40
30856;BME280;17570;0.000;0.000;2023-06-19T15:11:38;96880.73;;;40.17;18.90
30856;BME280;17570;0.000;0.000;2023-06-19T15:14:05;96888.89;;;39.86;19.33
30856;BME280;17570;0.000;0.000;2023-06-19T15:16:33;96897.92;;;39.64;19.06
30856;BME280;17570;0.000;0.000;2023-06-19T15:19:00;96889.58;;;39.38;19.27
30856;BME280;17570;0.000;0.000;2023-06-19T15:21:28;96892.59;;;39.14;19.34
30856;BME280;17570;0.000;0.000;2023-06-19T15:23:55;96885.22;;;38.92;19.16
30856;BME280;17570;0.000;0.000;2023-06-19T15:26:23;96884.23;;;38.74;19.61
30856;BME280;17570;0.000;0.000;2023-06-19T15:28:50;96875.24;;;38.51;19.67
30856;BME280;17570;0.000;0.000;2023-06-19T15:31:20;96870.47;;;38.35;20.11
30856;BME280;17570;0.000;0.000;2023-06-19T15:33:49;96871.66;;;38.15;20.51
30856;BME280;17570;0.000;0.000;2023-06-19T15:36:17;96877.99;;;37.96;20.34
30856;BME280;17570;0.000;0.000;2023-06-19T15:38:44;96877.74;;;37.79;20.72
30856;BME280;17570;0.000;0.000;2023-06-19T15:41:12;96890.59;;;37.73;22.61
30856;BME280;17570;0.000;0.000;2023-06-19T15:43:39;96887.05;;;37.59;22.16
30856;BME280;17570;0.000;0.000;2023-06-19T15:46:07;96888.77;;;37.36;23.42
30856;BME280;17570;0.000;0.000;2023-06-19T15:48:34;96888.50;;;37.19;23.83
30856;BME280;17570;0.000;0.000;2023-06-19T15:51:02;96887.11;;;37.02;23.45
30856;BME280;17570;0.000;0.000;2023-06-19T15:53:29;96886.17;;;36.93;23.22
30856;BME280;17570;0.000;0.000;2023-06-19T15:55:57;96883.89;;;36.82;23.25
30856;BME280;17570;0.000;0.000;2023-06-19T15:58:25;96882.22;;;36.67;23.28
30856;BME280;17570;0.000;0.000;2023-06-19T16:00:52;96890.02;;;36.49;23.26
30856;BME280;17570;0.000;0.000;2023-06-19T16:03:21;96885.52;;;36.40;23.55
30856;BME280;17570;0.000;0.000;2023-06-19T16:05:48;96894.03;;;36.28;24.48
30856;BME280;17570;0.000;0.000;2023-06-19T16:08:18;96889.91;;;36.12;23.94
30856;BME280;17570;0.000;0.000;2023-06-19T16:10:46;96893.24;;;36.03;24.35
30856;BME280;17570;0.000;0.000;2023-06-19T16:13:13;96887.69;;;35.90;24.97
30856;BME280;17570;0.000;0.000;2023-06-19T16:15:41;96897.45;;;35.86;24.79
30856;BME280;17570;0.000;0.000;2023-06-19T16:18:09;96895.34;;;35.83;24.34
30856;BME280;17570;0.000;0.000;2023-06-19T16:20:36;96898.41;;;35.71;24.89
30856;BME280;17570;0.000;0.000;2023-06-19T16:23:04;96899.32;;;35.61;25.40
30856;BME280;17570;0.000;0.000;2023-06-19T16:25:31;96906.73;;;35.45;25.86
30856;BME280;17570;0.000;0.000;2023-06-19T16:27:59;96907.63;;;35.36;25.58
30856;BME280;17570;0.000;0.000;2023-06-19T16:30:26;96908.78;;;35.24;25.28
30856;BME280;17570;0.000;0.000;2023-06-19T16:32:55;96911.52;;;35.19;25.45
30856;BME280;17570;0.000;0.000;2023-06-19T16:35:22;96909.41;;;35.16;25.53
30856;BME280;17570;0.000;0.000;2023-06-19T16:37:54;96919.70;;;35.09;26.71
30856;BME280;17570;0.000;0.000;2023-06-19T16:40:24;96912.48;;;34.99;27.11
30856;BME280;17570;0.000;0.000;2023-06-19T16:42:51;96917.11;;;34.89;27.96
30856;BME280;17570;0.000;0.000;2023-06-19T16:45:19;96914.19;;;34.80;28.00
30856;BME280;17570;0.000;0.000;2023-06-19T16:47:48;96909.66;;;34.70;28.21
30856;BME280;17570;0.000;0.000;2023-06-19T16:50:16;96918.88;;;34.59;28.52
30856;BME280;17570;0.000;0.000;2023-06-19T16:52:43;96920.53;;;34.45;28.32
30856;BME280;17570;0.000;0.000;2023-06-19T16:55:10;96915.70;;;34.37;28.66
30856;BME280;17570;0.000;0.000;2023-06-19T16:57:38;96931.11;;;34.26;28.90
30856;BME280;17570;0.000;0.000;2023-06-19T17:00:06;96920.09;;;34.17;29.71
30856;BME280;17570;0.000;0.000;2023-06-19T17:02:36;96922.81;;;34.07;29.01
30856;BME280;17570;0.000;0.000;2023-06-19T17:05:03;96931.44;;;33.94;30.04
30856;BME280;17570;0.000;0.000;2023-06-19T17:07:31;96926.36;;;33.82;30.03
30856;BME280;17570;0.000;0.000;2023-06-19T17:09:58;96930.41;;;33.69;30.31
30856;BME280;17570;0.000;0.000;2023-06-19T17:12:27;96931.50;;;33.58;30.61
30856;BME280;17570;0.000;0.000;2023-06-19T17:14:55;96932.56;;;33.47;31.24
30856;BME280;17570;0.000;0.000;2023-06-19T17:17:23;96944.11;;;33.42;31.55
30856;BME280;17570;0.000;0.000;2023-06-19T17:19:50;96941.94;;;33.29;31.57
30856;BME280;17570;0.000;0.000;2023-06-19T17:22:19;96938.72;;;33.17;32.18
30856;BME280;17570;0.000;0.000;2023-06-19T17:24:47;96945.94;;;33.01;32.29
30856;BME280;17570;0.000;0.000;2023-06-19T17:27:14;96947.02;;;32.95;32.41
30856;BME280;17570;0.000;0.000;2023-06-19T17:29:41;96944.55;;;32.83;32.55
30856;BME280;17570;0.000;0.000;2023-06-19T17:32:09;96945.58;;;32.72;32.64
30856;BME280;17570;0.000;0.000;2023-06-19T17:34:36;96946.08;;;32.64;32.77
30856;BME280;17570;0.000;0.000;2023-06-19T17:37:04;96947.66;;;32.55;32.84
30856;BME280;17570;0.000;0.000;2023-06-19T17:39:31;96943.05;;;32.45;33.23
30856;BME280;17570;0.000;0.000;2023-06-19T17:41:59;96941.42;;;32.39;33.42
30856;BME280;17570;0.000;0.000;2023-06-19T17:44:26;96945.66;;;32.35;33.53
30856;BME280;17570;0.000;0.000;2023-06-19T17:46:55;96946.16;;;32.26;33.91
30856;BME280;17570;0.000;0.000;2023-06-19T17:49:24;96951.51;;;32.21;33.60
30856;BME280;17570;0.000;0.000;2023-06-19T17:51:52;96954.73;;;32.18;33.52
30856;BME280;17570;0.000;0.000;2023-06-19T17:54:19;96957.39;;;32.13;33.76
30856;BME280;17570;0.000;0.000;2023-06-19T17:56:49;96963.78;;;32.07;33.69
30856;BME280;17570;0.000;0.000;2023-06-19T17:59:17;96974.47;;;31.97;33.58
30856;BME280;17570;0.000;0.000;2023-06-19T18:01:44;96972.52;;;31.87;33.67
30856;BME280;17570;0.000;0.000;2023-06-19T18:04:11;96973.03;;;31.84;34.09
30856;BME280;17570;0.000;0.000;2023-06-19T18:06:39;96977.02;;;31.82;34.17
30856;BME280;17570;0.000;0.000;2023-06-19T18:09:06;96978.60;;;31.78;33.90
30856;BME280;17570;0.000;0.000;2023-06-19T18:11:34;96983.63;;;31.69;33.94
30856;BME280;17570;0.000;0.000;2023-06-19T18:14:01;96988.66;;;31.60;34.12
30856;BME280;17570;0.000;0.000;2023-06-19T18:16:29;96985.08;;;31.49;34.36
30856;BME280;17570;0.000;0.000;2023-06-19T18:18:56;96994.39;;;31.42;34.85
30856;BME280;17570;0.000;0.000;2023-06-19T18:21:24;96997.80;;;31.32;35.55
30856;BME280;17570;0.000;0.000;2023-06-19T18:23:51;97000.30;;;31.17;35.90
30856;BME280;17570;0.000;0.000;2023-06-19T18:26:18;97004.13;;;30.99;34.72
30856;BME280;17570;0.000;0.000;2023-06-19T18:28:46;97006.96;;;30.87;35.42
30856;BME280;17570;0.000;0.000;2023-06-19T18:31:13;97014.11;;;30.82;35.30
30856;BME280;17570;0.000;0.000;2023-06-19T18:33:41;97010.51;;;30.71;35.33
30856;BME280;17570;0.000;0.000;2023-06-19T18:36:09;97010.91;;;30.63;38.08
30856;BME280;17570;0.000;0.000;2023-06-19T18:38:36;97011.52;;;30.48;36.16
30856;BME280;17570;0.000;0.000;2023-06-19T18:41:03;97012.84;;;30.45;34.91
30856;BME280;17570;0.000;0.000;2023-06-19T18:43:31;97028.02;;;30.40;38.22
30856;BME280;17570;0.000;0.000;2023-06-19T18:45:58;97029.20;;;30.27;34.99
30856;BME280;17570;0.000;0.000;2023-06-19T18:48:26;97032.83;;;30.21;35.15
30856;BME280;17570;0.000;0.000;2023-06-19T18:50:54;97032.28;;;30.19;35.76
30856;BME280;17570;0.000;0.000;2023-06-19T18:53:22;97040.80;;;30.16;35.71
30856;BME280;17570;0.000;0.000;2023-06-19T18:55:49;97039.80;;;30.05;36.17
30856;BME280;17570;0.000;0.000;2023-06-19T18:58:17;97038.12;;;29.99;35.70
30856;BME280;17570;0.000;0.000;2023-06-19T19:00:46;97039.66;;;29.95;35.94
30856;BME280;17570;0.000;0.000;2023-06-19T19:03:14;97048.08;;;29.87;36.06
30856;BME280;17570;0.000;0.000;2023-06-19T19:05:41;97038.36;;;29.81;35.52
30856;BME280;17570;0.000;0.000;2023-06-19T19:08:09;97053.49;;;29.75;37.10
30856;BME280;17570;0.000;0.000;2023-06-19T19:10:37;97050.17;;;29.68;35.50
30856;BME280;17570;0.000;0.000;2023-06-19T19:13:04;97049.63;;;29.66;36.00
30856;BME280;17570;0.000;0.000;2023-06-19T19:15:34;97052.52;;;29.64;36.10
30856;BME280;17570;0.000;0.000;2023-06-19T19:18:01;97055.11;;;29.59;35.91
30856;BME280;17570;0.000;0.000;2023-06-19T19:20:29;97055.36;;;29.58;36.27
30856;BME280;17570;0.000;0.000;2023-06-19T19:22:57;97055.36;;;29.58;36.22
30856;BME280;17570;0.000;0.000;2023-06-19T19:25:24;97049.30;;;29.51;36.40
30856;BME280;17570;0.000;0.000;2023-06-19T19:27:52;97055.62;;;29.44;35.88
30856;BME280;17570;0.000;0.000;2023-06-19T19:30:19;97066.56;;;29.43;36.16
30856;BME280;17570;0.000;0.000;2023-06-19T19:32:46;97050.31;;;29.33;36.13
30856;BME280;17570;0.000;0.000;2023-06-19T19:35:14;97053.95;;;29.27;36.32
30856;BME280;17570;0.000;0.000;2023-06-19T19:37:41;97050.84;;;29.18;36.36
30856;BME280;17570;0.000;0.000;2023-06-19T19:40:09;97059.58;;;29.13;36.79
30856;BME280;17570;0.000;0.000;2023-06-19T19:42:37;97056.24;;;29.06;37.44
30856;BME280;17570;0.000;0.000;2023-06-19T19:45:04;97060.90;;;28.99;36.84
30856;BME280;17570;0.000;0.000;2023-06-19T19:47:32;97058.72;;;28.96;36.84
30856;BME280;17570;0.000;0.000;2023-06-19T19:49:59;97061.83;;;28.93;36.65
30856;BME280;17570;0.000;0.000;2023-06-19T19:52:27;97057.44;;;28.87;36.48
30856;BME280;17570;0.000;0.000;2023-06-19T19:54:54;97055.22;;;28.84;36.69
30856;BME280;17570;0.000;0.000;2023-06-19T19:57:22;97054.31;;;28.78;36.76
30856;BME280;17570;0.000;0.000;2023-06-19T19:59:49;97060.12;;;28.75;36.67
30856;BME280;17570;0.000;0.000;2023-06-19T20:02:17;97058.15;;;28.70;37.38
30856;BME280;17570;0.000;0.000;2023-06-19T20:04:44;97054.91;;;28.68;36.84
30856;BME280;17570;0.000;0.000;2023-06-19T20:07:11;97053.97;;;28.63;36.77
30856;BME280;17570;0.000;0.000;2023-06-19T20:09:39;97055.72;;;28.57;37.16
30856;BME280;17570;0.000;0.000;2023-06-19T20:12:08;97051.89;;;28.53;37.20
30856;BME280;17570;0.000;0.000;2023-06-19T20:14:36;97041.20;;;28.53;36.98
30856;BME280;17570;0.000;0.000;2023-06-19T20:17:05;97046.23;;;28.50;37.06
30856;BME280;17570;0.000;0.000;2023-06-19T20:19:32;97045.53;;;28.42;37.08
30856;BME280;17570;0.000;0.000;2023-06-19T20:22:00;97036.36;;;28.38;37.35
30856;BME280;17570;0.000;0.000;2023-06-19T20:24:27;97039.83;;;28.39;37.19
30856;BME280;17570;0.000;0.000;2023-06-19T20:26:55;97034.98;;;28.36;37.13
30856;BME280;17570;0.000;0.000;2023-06-19T20:29:22;97045.52;;;28.31;37.05
30856;BME280;17570;0.000;0.000;2023-06-19T20:31:50;97038.53;;;28.30;37.46
30856;BME280;17570;0.000;0.000;2023-06-19T20:34:17;97039.02;;;28.27;37.19
30856;BME280;17570;0.000;0.000;2023-06-19T20:36:44;97039.71;;;28.22;37.40
30856;BME280;17570;0.000;0.000;2023-06-19T20:39:12;97039.47;;;28.23;37.71
30856;BME280;17570;0.000;0.000;2023-06-19T20:41:40;97051.89;;;28.18;37.37
30856;BME280;17570;0.000;0.000;2023-06-19T20:44:09;97045.63;;;28.12;37.42
30856;BME280;17570;0.000;0.000;2023-06-19T20:46:36;97045.03;;;28.10;37.78
30856;BME280;17570;0.000;0.000;2023-06-19T20:49:04;97047.12;;;28.08;37.79
30856;BME280;17570;0.000;0.000;2023-06-19T20:51:31;97048.19;;;28.07;37.65
30856;BME280;17570;0.000;0.000;2023-06-19T20:53:59;97047.83;;;28.04;37.48
30856;BME280;17570;0.000;0.000;2023-06-19T20:56:26;97050.70;;;28.02;37.38
30856;BME280;17570;0.000;0.000;2023-06-19T20:58:54;97052.80;;;28.00;37.49
30856;BME280;17570;0.000;0.000;2023-06-19T21:01:24;97050.83;;;27.95;37.51
30856;BME280;17570;0.000;0.000;2023-06-19T21:03:52;97050.70;;;27.90;37.68
30856;BME280;17570;0.000;0.000;2023-06-19T21:06:22;97051.75;;;27.89;37.66
30856;BME280;17570;0.000;0.000;2023-06-19T21:08:51;97059.40;;;27.86;37.44
30856;BME280;17570;0.000;0.000;2023-06-19T21:11:19;97055.56;;;27.82;37.61
30856;BME280;17570;0.000;0.000;2023-06-19T21:13:46;97059.28;;;27.81;37.58
30856;BME280;17570;0.000;0.000;2023-06-19T21:16:15;97055.80;;;27.80;37.47
30856;BME280;17570;0.000;0.000;2023-06-19T21:18:43;97066.34;;;27.75;37.68
30856;BME280;17570;0.000;0.000;2023-06-19T21:21:10;97067.20;;;27.69;37.71
30856;BME280;17570;0.000;0.000;2023-06-19T21:23:38;97066.19;;;27.70;37.67
30856;BME280;17570;0.000;0.000;2023-06-19T21:26:05;97059.80;;;27.71;37.57
30856;BME280;17570;0.000;0.000;2023-06-19T21:28:33;97067.45;;;27.67;37.61
30856;BME280;17570;0.000;0.000;2023-06-19T21:31:00;97067.69;;;27.66;37.51
30856;BME280;17570;0.000;0.000;2023-06-19T21:33:27;97062.80;;;27.63;37.61
30856;BME280;17570;0.000;0.000;2023-06-19T21:35:57;97060.57;;;27.60;37.75
30856;BME280;17570;0.000;0.000;2023-06-19T21:38:24;97065.78;;;27.55;37.94
30856;BME280;17570;0.000;0.000;2023-06-19T21:40:53;97068.44;;;27.55;37.88
30856;BME280;17570;0.000;0.000;2023-06-19T21:43:21;97071.59;;;27.52;37.79
30856;BME280;17570;0.000;0.000;2023-06-19T21:45:48;97065.89;;;27.48;37.84
30856;BME280;17570;0.000;0.000;2023-06-19T21:48:15;97065.65;;;27.50;37.87
30856;BME280;17570;0.000;0.000;2023-06-19T21:50:43;97073.28;;;27.46;37.80
30856;BME280;17570;0.000;0.000;2023-06-19T21:53:10;97070.28;;;27.42;37.60
30856;BME280;17570;0.000;0.000;2023-06-19T21:55:38;97074.20;;;27.40;37.63
30856;BME280;17570;0.000;0.000;2023-06-19T21:58:05;97078.58;;;27.34;37.80
30856;BME280;17570;0.000;0.000;2023-06-19T22:00:33;97070.45;;;27.29;37.82
30856;BME280;17570;0.000;0.000;2023-06-19T22:03:00;97075.41;;;27.26;38.06
30856;BME280;17570;0.000;0.000;2023-06-19T22:05:28;97070.52;;;27.23;38.37
30856;BME280;17570;0.000;0.000;2023-06-19T22:07:57;97075.64;;;27.24;38.01
30856;BME280;17570;0.000;0.000;2023-06-19T22:10:25;97067.52;;;27.19;38.21
30856;BME280;17570;0.000;0.000;2023-06-19T22:12:52;97067.14;;;27.15;38.37
30856;BME280;17570;0.000;0.000;2023-06-19T22:15:20;97068.77;;;27.16;38.37
30856;BME280;17570;0.000;0.000;2023-06-19T22:17:47;97070.48;;;27.11;38.13
30856;BME280;17570;0.000;0.000;2023-06-19T22:20:15;97067.21;;;27.09;38.46
30856;BME280;17570;0.000;0.000;2023-06-19T22:22:46;97070.08;;;27.07;38.38
30856;BME280;17570;0.000;0.000;2023-06-19T22:25:14;97070.75;;;27.03;38.41
30856;BME280;17570;0.000;0.000;2023-06-19T22:27:42;97064.03;;;27.00;38.38
30856;BME280;17570;0.000;0.000;2023-06-19T22:30:10;97068.76;;;26.98;38.23
30856;BME280;17570;0.000;0.000;2023-06-19T22:32:38;97074.89;;;26.99;38.68
30856;BME280;17570;0.000;0.000;2023-06-19T22:35:06;97076.17;;;26.96;38.53
30856;BME280;17570;0.000;0.000;2023-06-19T22:37:33;97072.52;;;26.90;38.78
30856;BME280;17570;0.000;0.000;2023-06-19T22:40:01;97070.09;;;26.89;38.67
30856;BME280;17570;0.000;0.000;2023-06-19T22:42:30;97078.52;;;26.86;38.49
30856;BME280;17570;0.000;0.000;2023-06-19T22:44:57;97066.47;;;26.83;38.69
30856;BME280;17570;0.000;0.000;2023-06-19T22:47:24;97064.25;;;26.80;38.71
30856;BME280;17570;0.000;0.000;2023-06-19T22:49:52;97058.11;;;26.80;38.61
30856;BME280;17570;0.000;0.000;2023-06-19T22:52:19;97064.48;;;26.79;38.59
30856;BME280;17570;0.000;0.000;2023-06-19T22:54:49;97057.16;;;26.74;38.61
30856;BME280;17570;0.000;0.000;2023-06-19T22:57:16;97069.66;;;26.74;38.56
30856;BME280;17570;0.000;0.000;2023-06-19T22:59:44;97064.19;;;26.68;38.46
30856;BME280;17570;0.000;0.000;2023-06-19T23:02:11;97059.91;;;26.67;38.82
30856;BME280;17570;0.000;0.000;2023-06-19T23:04:39;97057.67;;;26.64;38.85
30856;BME280;17570;0.000;0.000;2023-06-19T23:07:06;97054.63;;;26.61;38.86
30856;BME280;17570;0.000;0.000;2023-06-19T23:09:33;97056.34;;;26.55;38.74
30856;BME280;17570;0.000;0.000;2023-06-19T23:12:01;97057.15;;;26.56;38.98
30856;BME280;17570;0.000;0.000;2023-06-19T23:14:29;97047.16;;;26.51;39.32
30856;BME280;17570;0.000;0.000;2023-06-19T23:16:57;97050.41;;;26.53;39.07
30856;BME280;17570;0.000;0.000;2023-06-19T23:19:24;97048.63;;;26.47;39.18
30856;BME280;17570;0.000;0.000;2023-06-19T23:21:52;97044.93;;;26.48;39.17
30856;BME280;17570;0.000;0.000;2023-06-19T23:24:20;97043.31;;;26.47;38.86
30856;BME280;17570;0.000;0.000;2023-06-19T23:26:48;97048.69;;;26.40;39.01
30856;BME280;17570;0.000;0.000;2023-06-19T23:29:15;97047.44;;;26.43;39.25
30856;BME280;17570;0.000;0.000;2023-06-19T23:31:42;97042.12;;;26.43;39.27
30856;BME280;17570;0.000;0.000;2023-06-19T23:34:10;97044.78;;;26.43;39.22
30856;BME280;17570;0.000;0.000;2023-06-19T23:36:37;97038.47;;;26.37;39.30
30856;BME280;17570;0.000;0.000;2023-06-19T23:39:05;97041.36;;;26.36;39.16
30856;BME280;17570;0.000;0.000;2023-06-19T23:41:32;97045.48;;;26.32;39.31
30856;BME280;17570;0.000;0.000;2023-06-19T23:44:00;97043.25;;;26.29;39.21
30856;BME280;17570;0.000;0.000;2023-06-19T23:46:28;97038.82;;;26.23;39.29
30856;BME280;17570;0.000;0.000;2023-06-19T23:48:55;97036.74;;;26.25;39.45
30856;BME280;17570;0.000;0.000;2023-06-19T23:51:23;97039.41;;;26.25;39.44
30856;BME280;17570;0.000;0.000;2023-06-19T23:53:50;97031.06;;;26.21;39.39